Time;durP1;ratioP1;P1;durP2;ratioP2;P2;SDS_P1;SDS_P2;PMS_P1;PMS_P2;Temp;Humidity;BMP_temperature;BMP_pressure;BME280_temperature;BME280_humidity;BME280_pressure;Samples;Min_cycle;Max_cycle;Signal;HPM_P1;HPM_P2
2021/08/22 00:02:01;;;;;;;7.85;3.83;;;18.30;85.60;;;;;;6274453;22;20031;-76
2021/08/22 00:04:36;;;;;;;6.95;2.70;;;18.20;85.90;;;;;;6278048;22;20024;-75
2021/08/22 00:07:03;;;;;;;6.93;3.22;;;18.20;85.70;;;;;;6278108;22;20071;-76
2021/08/22 00:09:31;;;;;;;5.82;3.15;;;18.20;85.90;;;;;;6282185;22;20038;-75
2021/08/22 00:12:07;;;;;;;4.88;2.65;;;18.20;85.90;;;;;;6278631;22;20042;-75
2021/08/22 00:14:41;;;;;;;12.50;2.97;;;18.10;86.10;;;;;;6279920;22;20035;-77
2021/08/22 00:17:08;;;;;;;5.80;2.90;;;18.10;86.10;;;;;;6282182;22;20207;-77
2021/08/22 00:19:35;;;;;;;8.65;2.78;;;18.20;86.00;;;;;;6280529;22;20023;-76
2021/08/22 00:22:02;;;;;;;6.53;3.28;;;18.10;86.20;;;;;;6278521;22;20307;-76
2021/08/22 00:24:30;;;;;;;6.65;3.22;;;17.90;86.70;;;;;;6280034;22;20032;-77
2021/08/22 00:26:57;;;;;;;9.05;3.30;;;17.80;87.10;;;;;;6278344;22;20040;-76
2021/08/22 00:29:25;;;;;;;9.52;3.13;;;17.80;87.20;;;;;;6276675;22;20051;-74
2021/08/22 00:31:53;;;;;;;7.10;3.47;;;17.90;87.70;;;;;;6277773;22;20039;-76
2021/08/22 00:34:20;;;;;;;5.10;3.05;;;18.00;88.30;;;;;;6278941;22;20027;-76
2021/08/22 00:36:47;;;;;;;10.50;3.38;;;18.00;88.20;;;;;;6278845;22;20188;-75
2021/08/22 00:39:14;;;;;;;5.88;3.17;;;18.10;88.50;;;;;;6275667;22;20027;-75
2021/08/22 00:41:43;;;;;;;7.18;3.28;;;18.10;89.00;;;;;;6303751;22;20346;-76
2021/08/22 00:44:10;;;;;;;5.57;3.25;;;18.10;89.20;;;;;;6312849;22;20066;-76
2021/08/22 00:46:39;;;;;;;8.10;3.50;;;18.10;89.30;;;;;;6281834;22;20075;-75
2021/08/22 00:49:06;;;;;;;6.97;2.60;;;18.00;89.10;;;;;;6312080;22;20038;-75
2021/08/22 00:51:35;;;;;;;5.63;2.97;;;18.10;88.90;;;;;;6285356;22;20218;-75
2021/08/22 00:54:03;;;;;;;5.93;2.70;;;18.20;89.10;;;;;;6313237;22;20023;-75
2021/08/22 00:56:32;;;;;;;7.70;3.10;;;18.20;88.80;;;;;;6309835;22;20072;-75
2021/08/22 00:59:02;;;;;;;7.47;3.20;;;18.10;88.70;;;;;;6283532;22;20333;-75
2021/08/22 01:01:34;;;;;;;10.65;3.17;;;18.10;88.70;;;;;;6306902;22;20027;-75
2021/08/22 01:04:08;;;;;;;7.50;3.28;;;18.10;88.70;;;;;;6307872;22;20034;-76
2021/08/22 01:06:43;;;;;;;7.15;3.03;;;18.10;89.00;;;;;;6282598;22;20027;-75
2021/08/22 01:09:15;;;;;;;12.88;3.63;;;18.00;89.10;;;;;;6284610;22;20179;-75
2021/08/22 01:11:44;;;;;;;7.07;3.42;;;17.90;89.20;;;;;;6283734;22;20027;-76
2021/08/22 01:14:13;;;;;;;5.97;3.35;;;18.00;89.40;;;;;;6311852;22;20027;-75
2021/08/22 01:17:00;;;;;;;8.23;3.98;;;18.10;89.70;;;;;;3238695;22;10279927;-75
2021/08/22 01:19:43;;;;;;;5.53;3.25;;;18.10;89.90;;;;;;4567763;22;10000994;-76
2021/08/22 01:22:10;;;;;;;6.80;3.70;;;18.00;90.20;;;;;;6311925;22;20061;-75
2021/08/22 01:24:41;;;;;;;8.02;3.85;;;17.90;90.40;;;;;;6284666;22;20027;-74
2021/08/22 01:27:10;;;;;;;7.35;3.20;;;17.90;90.30;;;;;;6285667;22;20100;-76
2021/08/22 01:29:43;;;;;;;10.40;3.35;;;17.90;90.40;;;;;;6311543;22;20015;-77
2021/08/22 01:32:13;;;;;;;5.72;3.30;;;17.90;90.50;;;;;;6314149;22;20019;-75
2021/08/22 01:34:43;;;;;;;6.22;3.30;;;17.90;90.80;;;;;;6285100;22;20382;-77
2021/08/22 01:37:10;;;;;;;;;;;17.90;90.70;;;;;;6312981;22;20027;-77
2021/08/22 01:39:41;;;;;;;9.77;3.00;;;17.90;90.40;;;;;;6311413;22;19918;-75
2021/08/22 01:42:10;;;;;;;6.07;3.00;;;18.00;90.10;;;;;;6311344;22;20027;-76
2021/08/22 01:44:39;;;;;;;6.93;3.42;;;17.90;90.30;;;;;;6283902;22;20023;-75
2021/08/22 01:47:08;;;;;;;5.63;3.17;;;17.90;90.30;;;;;;6310323;22;20075;-75
2021/08/22 01:49:36;;;;;;;4.72;2.72;;;18.00;90.20;;;;;;6309687;22;20022;-77
2021/08/22 01:52:07;;;;;;;5.50;3.10;;;18.10;89.80;;;;;;6313796;22;20330;-76
2021/08/22 01:54:36;;;;;;;4.82;2.65;;;18.20;89.60;;;;;;6311304;22;20019;-77
2021/08/22 01:57:04;;;;;;;6.03;3.60;;;18.10;89.60;;;;;;6309263;22;20029;-76
2021/08/22 01:59:38;;;;;;;8.40;3.97;;;18.10;89.70;;;;;;6310777;22;20078;-77
2021/08/22 02:02:06;;;;;;;7.68;3.70;;;18.10;89.90;;;;;;6305445;22;20015;-77
2021/08/22 02:04:43;;;;;;;7.00;3.60;;;18.00;89.90;;;;;;6314194;22;20031;-75
2021/08/22 02:07:14;;;;;;;7.10;3.53;;;17.90;90.60;;;;;;6312149;22;20330;-77
2021/08/22 02:09:50;;;;;;;7.70;3.70;;;17.90;90.30;;;;;;6312001;22;20066;-77
2021/08/22 02:12:20;;;;;;;12.65;3.85;;;17.90;90.30;;;;;;6313209;22;20039;-74
2021/08/22 02:14:55;;;;;;;6.22;3.60;;;17.80;90.70;;;;;;6284847;22;20023;-77
2021/08/22 02:17:23;;;;;;;6.63;3.88;;;17.90;90.70;;;;;;6286123;22;20329;-77
2021/08/22 02:19:52;;;;;;;8.40;3.47;;;17.90;90.40;;;;;;6312870;22;20389;-77
2021/08/22 02:22:21;;;;;;;6.88;3.70;;;17.90;90.40;;;;;;6286496;22;20237;-77
2021/08/22 02:24:49;;;;;;;12.60;3.88;;;17.80;90.40;;;;;;6285831;22;20314;-77
2021/08/22 02:27:17;;;;;;;6.38;3.42;;;17.80;90.60;;;;;;6283836;22;20042;-77
2021/08/22 02:29:48;;;;;;;6.65;3.83;;;17.80;91.00;;;;;;6308519;22;20023;-76
2021/08/22 02:32:15;;;;;;;7.15;3.53;;;17.80;91.10;;;;;;6280654;22;20110;-76
2021/08/22 02:34:43;;;;;;;7.65;3.90;;;17.80;91.00;;;;;;6284447;22;20026;-77
2021/08/22 02:37:10;;;;;;;5.90;3.47;;;17.70;91.10;;;;;;6313466;22;20033;-76
2021/08/22 02:39:39;;;;;;;10.65;4.00;;;17.70;91.20;;;;;;6284069;22;20251;-78
2021/08/22 02:42:07;;;;;;;9.18;3.40;;;17.70;91.00;;;;;;6285519;22;20329;-76
2021/08/22 02:44:34;;;;;;;7.55;3.08;;;17.70;91.20;;;;;;6284381;22;20377;-76
2021/08/22 02:47:02;;;;;;;6.25;3.75;;;17.80;91.10;;;;;;6313031;22;20023;-76
2021/08/22 02:49:32;;;;;;;7.38;3.53;;;17.80;91.20;;;;;;6312348;22;20027;-76
2021/08/22 02:51:59;;;;;;;7.55;3.42;;;17.80;91.30;;;;;;6313895;22;20325;-76
2021/08/22 02:54:27;;;;;;;6.32;3.25;;;17.80;91.00;;;;;;6312374;22;20027;-76
2021/08/22 02:56:56;;;;;;;8.93;3.30;;;17.80;91.10;;;;;;6314200;22;20314;-77
2021/08/22 02:59:23;;;;;;;8.18;3.00;;;17.80;90.90;;;;;;6313563;22;20233;-77
2021/08/22 03:01:50;;;;;;;7.15;4.22;;;17.90;90.90;;;;;;6305735;22;20015;-76
2021/08/22 03:04:18;;;;;;;6.55;3.60;;;17.70;91.10;;;;;;6261585;22;20086;-76
2021/08/22 03:06:45;;;;;;;8.52;3.95;;;17.90;91.20;;;;;;6284755;22;20318;-75
2021/08/22 03:09:15;;;;;;;5.65;3.08;;;17.80;91.10;;;;;;6285514;22;20019;-77
2021/08/22 03:11:43;;;;;;;7.82;4.10;;;17.80;91.40;;;;;;6285690;22;20494;-76
2021/08/22 03:14:18;;;;;;;7.18;3.38;;;17.80;91.20;;;;;;6311832;22;20316;-77
2021/08/22 03:16:53;;;;;;;6.00;3.05;;;17.80;91.10;;;;;;6286232;22;20093;-75
2021/08/22 03:19:20;;;;;;;8.95;3.95;;;17.90;91.10;;;;;;6312656;22;20090;-76
2021/08/22 03:21:47;;;;;;;8.15;3.72;;;17.90;90.80;;;;;;6313163;22;20019;-76
2021/08/22 03:24:15;;;;;;;6.88;3.58;;;17.80;91.30;;;;;;6310904;22;20325;-76
2021/08/22 03:26:42;;;;;;;5.88;3.35;;;17.80;91.40;;;;;;6310207;22;20023;-76
2021/08/22 03:29:10;;;;;;;7.47;3.75;;;17.80;91.20;;;;;;6280906;22;20034;-77
2021/08/22 03:31:38;;;;;;;7.53;3.85;;;17.70;91.30;;;;;;6309703;22;20028;-76
2021/08/22 03:34:06;;;;;;;4.80;2.92;;;17.70;91.40;;;;;;6307578;22;20031;-77
2021/08/22 03:36:37;;;;;;;10.02;3.78;;;17.70;91.50;;;;;;6309491;22;20535;-77
2021/08/22 03:39:04;;;;;;;9.10;3.42;;;17.70;91.40;;;;;;6281364;22;20314;-77
2021/08/22 03:41:35;;;;;;;6.13;3.70;;;17.70;91.40;;;;;;6308239;22;20353;-77
2021/08/22 03:44:03;;;;;;;6.38;3.72;;;17.70;91.50;;;;;;6283888;22;20030;-76
2021/08/22 03:46:31;;;;;;;8.30;3.97;;;17.70;91.60;;;;;;6314061;22;20034;-76
2021/08/22 03:48:59;;;;;;;9.75;3.60;;;17.70;91.40;;;;;;6282167;22;20023;-76
2021/08/22 03:51:27;;;;;;;6.53;3.67;;;17.70;91.40;;;;;;6307897;22;20049;-76
2021/08/22 03:53:54;;;;;;;8.60;4.18;;;17.70;91.30;;;;;;6312535;22;20038;-76
2021/08/22 03:56:21;;;;;;;9.20;4.47;;;17.70;91.20;;;;;;6312307;22;20018;-75
2021/08/22 03:58:48;;;;;;;8.13;4.40;;;17.70;91.50;;;;;;6309738;22;20015;-75
2021/08/22 04:01:16;;;;;;;8.35;4.40;;;17.60;91.80;;;;;;6304975;22;20243;-77
2021/08/22 04:03:51;;;;;;;4.97;2.60;;;17.60;91.90;;;;;;6285136;22;20345;-76
2021/08/22 04:06:47;;;;;;;5.43;2.77;;;17.60;91.80;;;;;;6281288;22;20015;-75
2021/08/22 04:09:14;;;;;;;6.22;2.60;;;17.50;91.70;;;;;;6282881;22;20441;-75
2021/08/22 04:11:44;;;;;;;4.88;2.72;;;17.50;91.70;;;;;;6309688;22;20015;-77
2021/08/22 04:14:11;;;;;;;4.90;2.70;;;17.50;91.80;;;;;;6312358;22;20285;-76
2021/08/22 04:16:38;;;;;;;4.80;2.35;;;17.50;91.90;;;;;;6311684;22;20310;-76
2021/08/22 04:19:06;;;;;;;4.55;2.53;;;17.60;91.80;;;;;;6313246;22;20015;-76
2021/08/22 04:21:34;;;;;;;6.40;2.63;;;17.50;91.60;;;;;;6312743;22;20505;-76
2021/08/22 04:24:04;;;;;;;5.15;2.50;;;17.50;91.70;;;;;;6311305;22;20015;-75
2021/08/22 04:26:31;;;;;;;5.18;2.80;;;17.50;91.80;;;;;;6285913;22;20019;-75
2021/08/22 04:28:58;;;;;;;6.22;2.28;;;17.50;92.00;;;;;;6313195;22;20035;-75
2021/08/22 04:31:25;;;;;;;6.32;2.88;;;17.50;92.10;;;;;;6285978;22;20258;-75
2021/08/22 04:33:52;;;;;;;8.18;3.25;;;17.50;92.00;;;;;;6313559;22;20022;-76
2021/08/22 04:36:20;;;;;;;6.97;3.42;;;17.40;92.10;;;;;;6313074;22;20078;-76
2021/08/22 04:38:47;;;;;;;10.02;3.33;;;17.40;92.20;;;;;;6286679;22;20023;-76
2021/08/22 04:41:19;;;;;;;5.65;3.20;;;17.40;92.40;;;;;;6313208;22;20026;-76
2021/08/22 04:43:47;;;;;;;8.40;3.53;;;17.30;92.50;;;;;;6313135;22;20041;-75
2021/08/22 04:46:14;;;;;;;7.50;3.97;;;17.30;92.60;;;;;;6286211;22;20026;-75
2021/08/22 04:48:41;;;;;;;8.02;3.78;;;17.20;92.60;;;;;;6285381;22;20023;-74
2021/08/22 04:51:08;;;;;;;6.95;3.85;;;17.30;92.70;;;;;;6313941;22;20030;-75
2021/08/22 04:53:36;;;;;;;6.88;3.10;;;17.20;92.70;;;;;;6285885;22;20023;-74
2021/08/22 04:56:03;;;;;;;8.88;3.72;;;17.20;92.70;;;;;;6314742;22;20075;-76
2021/08/22 04:58:31;;;;;;;8.70;3.65;;;17.20;92.60;;;;;;6314461;22;20132;-76
2021/08/22 05:00:59;;;;;;;7.00;3.35;;;17.20;92.60;;;;;;6309204;22;20375;-75
2021/08/22 05:03:26;;;;;;;10.07;3.53;;;17.20;92.70;;;;;;6284707;22;20027;-76
2021/08/22 05:05:53;;;;;;;6.63;3.58;;;17.20;92.70;;;;;;6309744;22;20380;-75
2021/08/22 05:08:21;;;;;;;6.45;3.35;;;17.20;92.70;;;;;;6311961;22;20078;-76
2021/08/22 05:10:49;;;;;;;6.43;3.63;;;17.20;92.70;;;;;;6312166;22;20035;-77
2021/08/22 05:13:17;;;;;;;7.43;3.58;;;17.30;92.50;;;;;;6284575;22;20042;-77
2021/08/22 05:15:45;;;;;;;9.35;4.15;;;17.40;92.40;;;;;;6310676;22;20061;-77
2021/08/22 05:18:13;;;;;;;7.57;3.55;;;17.40;92.30;;;;;;6311232;22;20203;-75
2021/08/22 05:20:40;;;;;;;6.05;3.50;;;17.60;92.10;;;;;;6311403;22;20019;-76
2021/08/22 05:23:07;;;;;;;6.47;3.20;;;17.60;91.90;;;;;;6311166;22;20023;-76
2021/08/22 05:25:34;;;;;;;8.23;3.80;;;17.70;91.70;;;;;;6307959;22;20265;-76
2021/08/22 05:28:02;;;;;;;8.23;3.78;;;17.90;91.50;;;;;;6280628;22;20031;-75
2021/08/22 05:30:29;;;;;;;5.78;3.17;;;18.00;91.40;;;;;;6308836;22;20062;-75
2021/08/22 05:32:58;;;;;;;6.07;3.13;;;18.10;91.10;;;;;;6308580;22;20027;-75
2021/08/22 05:35:25;;;;;;;6.18;3.22;;;18.20;90.80;;;;;;6309312;22;20335;-75
2021/08/22 05:37:52;;;;;;;7.20;3.67;;;18.20;90.70;;;;;;6309063;22;20033;-75
2021/08/22 05:40:20;;;;;;;7.93;3.40;;;18.30;90.70;;;;;;6276670;22;20102;-76
2021/08/22 05:42:47;;;;;;;7.05;3.30;;;18.40;90.60;;;;;;6278835;22;20015;-75
2021/08/22 05:45:14;;;;;;;6.45;2.70;;;18.50;89.90;;;;;;6278268;22;20027;-75
2021/08/22 05:47:41;;;;;;;5.22;2.80;;;18.50;89.90;;;;;;6277328;22;20022;-76
2021/08/22 05:50:10;;;;;;;6.20;3.20;;;18.60;89.70;;;;;;6277705;22;20251;-76
2021/08/22 05:52:38;;;;;;;7.00;2.95;;;18.60;89.50;;;;;;6276462;22;20264;-76
2021/08/22 05:55:06;;;;;;;6.40;3.20;;;18.60;89.40;;;;;;6276582;22;20368;-76
2021/08/22 05:57:34;;;;;;;4.47;2.50;;;18.70;89.40;;;;;;6276666;22;20027;-75
2021/08/22 06:00:01;;;;;;;6.53;2.72;;;18.80;89.40;;;;;;6279455;22;20055;-77
2021/08/22 06:02:28;;;;;;;5.90;2.88;;;18.90;89.20;;;;;;6275316;22;20062;-76
2021/08/22 06:04:56;;;;;;;5.43;3.17;;;18.80;88.90;;;;;;6278383;22;20024;-75
2021/08/22 06:07:25;;;;;;;5.47;2.72;;;18.90;89.00;;;;;;6280881;22;20019;-76
2021/08/22 06:09:52;;;;;;;5.35;2.53;;;19.00;88.80;;;;;;6280807;22;20051;-75
2021/08/22 06:12:20;;;;;;;6.82;3.28;;;19.10;87.50;;;;;;6280696;22;20368;-76
2021/08/22 06:14:48;;;;;;;7.13;2.53;;;19.20;87.70;;;;;;6280856;22;20024;-77
2021/08/22 06:17:15;;;;;;;4.90;2.47;;;19.30;87.30;;;;;;6281140;22;20034;-76
2021/08/22 06:19:42;;;;;;;8.13;3.17;;;19.20;87.10;;;;;;6279028;22;20067;-75
2021/08/22 06:22:09;;;;;;;9.43;3.17;;;19.40;87.10;;;;;;6280625;22;20076;-75
2021/08/22 06:24:38;;;;;;;6.40;2.88;;;19.40;86.40;;;;;;6280530;22;20031;-75
2021/08/22 06:27:05;;;;;;;6.63;2.97;;;19.50;86.60;;;;;;6280675;22;20015;-75
2021/08/22 06:29:32;;;;;;;5.00;2.90;;;19.50;86.30;;;;;;6277569;22;20073;-75
2021/08/22 06:32:00;;;;;;;5.18;2.28;;;19.60;86.30;;;;;;6280516;22;20091;-75
2021/08/22 06:34:30;;;;;;;5.45;2.63;;;19.50;85.80;;;;;;6280507;22;20052;-76
2021/08/22 06:36:57;;;;;;;6.05;2.53;;;19.40;86.60;;;;;;6280258;22;20034;-74
2021/08/22 06:39:24;;;;;;;5.30;2.58;;;19.40;86.60;;;;;;6280633;22;20026;-76
2021/08/22 06:41:53;;;;;;;6.70;3.10;;;19.40;86.70;;;;;;6280314;22;20030;-76
2021/08/22 06:44:21;;;;;;;6.95;2.35;;;19.50;86.70;;;;;;6279967;22;20043;-76
2021/08/22 06:46:49;;;;;;;5.47;2.67;;;19.50;86.60;;;;;;6280458;22;20073;-77
2021/08/22 06:49:16;;;;;;;6.50;2.83;;;19.60;86.20;;;;;;6279289;22;20080;-76
2021/08/22 06:51:43;;;;;;;5.30;2.53;;;19.70;85.70;;;;;;6281608;22;20024;-77
2021/08/22 06:54:10;;;;;;;7.82;2.40;;;19.90;85.90;;;;;;6282687;22;20023;-76
2021/08/22 06:56:38;;;;;;;5.78;2.53;;;19.90;85.40;;;;;;6281541;22;20039;-76
2021/08/22 06:59:06;;;;;;;5.47;2.90;;;19.90;85.30;;;;;;6280042;22;20043;-76
2021/08/22 07:01:33;;;;;;;7.90;2.70;;;19.90;85.30;;;;;;6274396;22;20334;-76
2021/08/22 07:04:01;;;;;;;8.77;3.50;;;19.80;85.70;;;;;;6282193;22;20023;-76
2021/08/22 07:06:28;;;;;;;8.68;2.90;;;19.90;85.60;;;;;;6278217;22;20066;-78
2021/08/22 07:08:56;;;;;;;5.97;2.55;;;19.80;85.80;;;;;;6280563;22;20046;-74
2021/08/22 07:11:23;;;;;;;9.40;3.00;;;19.70;85.30;;;;;;6280376;22;20043;-75
2021/08/22 07:13:50;;;;;;;9.23;3.03;;;19.80;85.40;;;;;;6280311;22;20023;-75
2021/08/22 07:16:19;;;;;;;5.38;2.80;;;19.80;85.20;;;;;;6281209;22;20038;-75
2021/08/22 07:18:46;;;;;;;5.47;3.15;;;19.90;85.40;;;;;;6282084;22;20038;-75
2021/08/22 07:21:13;;;;;;;6.57;2.97;;;19.90;85.20;;;;;;6283002;22;20027;-77
2021/08/22 07:23:43;;;;;;;6.60;3.47;;;20.00;84.80;;;;;;6282327;22;20028;-75
2021/08/22 07:26:10;;;;;;;8.63;3.22;;;20.00;85.30;;;;;;6282220;22;20215;-76
2021/08/22 07:28:38;;;;;;;6.07;2.88;;;19.90;84.50;;;;;;6280959;22;20281;-76
2021/08/22 07:31:06;;;;;;;8.93;3.53;;;20.00;84.70;;;;;;6283939;22;20039;-76
2021/08/22 07:33:35;;;;;;;6.97;3.25;;;19.90;84.40;;;;;;6282412;22;20057;-76
2021/08/22 07:36:04;;;;;;;8.23;4.38;;;20.00;84.10;;;;;;6281929;22;20057;-75
2021/08/22 07:38:32;;;;;;;7.45;4.07;;;20.00;84.40;;;;;;6281786;22;20035;-76
2021/08/22 07:40:59;;;;;;;7.07;3.53;;;20.00;83.60;;;;;;6283311;22;20027;-76
2021/08/22 07:43:26;;;;;;;8.90;4.03;;;20.00;84.50;;;;;;6313817;22;20027;-76
2021/08/22 07:45:54;;;;;;;8.75;3.92;;;19.90;84.90;;;;;;6312348;22;20015;-75
2021/08/22 07:48:21;;;;;;;6.78;3.75;;;19.80;85.20;;;;;;6312560;22;20042;-76
2021/08/22 07:50:50;;;;;;;7.20;4.10;;;19.80;84.80;;;;;;6288559;22;20213;-75
2021/08/22 07:53:18;;;;;;;6.80;3.78;;;19.80;85.10;;;;;;6313880;22;20231;-76
2021/08/22 07:55:46;;;;;;;6.13;3.42;;;19.80;84.90;;;;;;6314300;22;20452;-75
2021/08/22 07:58:13;;;;;;;7.20;3.55;;;19.90;84.30;;;;;;6315297;22;20027;-76
2021/08/22 08:00:40;;;;;;;9.13;4.72;;;20.00;84.40;;;;;;6309210;22;20019;-75
2021/08/22 08:03:07;;;;;;;8.60;4.28;;;20.10;84.00;;;;;;6315326;22;20081;-76
2021/08/22 08:05:35;;;;;;;9.48;4.28;;;20.10;84.20;;;;;;6311466;22;20038;-75
2021/08/22 08:08:04;;;;;;;6.85;3.65;;;20.30;83.60;;;;;;6287714;22;20023;-75
2021/08/22 08:10:31;;;;;;;9.07;4.38;;;20.50;83.10;;;;;;6283846;22;20345;-76
2021/08/22 08:12:59;;;;;;;8.48;3.97;;;20.50;83.00;;;;;;6312547;22;20046;-75
2021/08/22 08:15:26;;;;;;;7.22;3.97;;;20.60;82.80;;;;;;6311718;22;20035;-75
2021/08/22 08:17:54;;;;;;;6.47;3.65;;;20.70;82.00;;;;;;6314562;22;20121;-75
2021/08/22 08:20:21;;;;;;;9.43;3.83;;;21.00;80.80;;;;;;6287609;22;20259;-76
2021/08/22 08:22:48;;;;;;;6.53;3.90;;;21.10;80.20;;;;;;6312983;22;20053;-76
2021/08/22 08:25:17;;;;;;;6.00;3.55;;;21.00;80.80;;;;;;6312141;22;20027;-75
2021/08/22 08:27:44;;;;;;;6.97;4.05;;;21.10;79.90;;;;;;6286273;22;20339;-75
2021/08/22 08:30:12;;;;;;;7.53;3.60;;;21.20;79.70;;;;;;6313954;22;20037;-75
2021/08/22 08:32:40;;;;;;;7.82;3.72;;;21.30;79.60;;;;;;6314452;22;20027;-75
2021/08/22 08:35:10;;;;;;;10.07;4.65;;;21.30;78.80;;;;;;6287070;22;20218;-75
2021/08/22 08:37:38;;;;;;;9.52;4.25;;;21.20;79.00;;;;;;6312780;22;20175;-75
2021/08/22 08:40:06;;;;;;;5.13;3.22;;;21.10;79.00;;;;;;6314111;22;20023;-76
2021/08/22 08:42:35;;;;;;;8.27;4.05;;;21.20;79.20;;;;;;6282594;22;20214;-75
2021/08/22 08:45:02;;;;;;;10.52;4.05;;;21.10;79.10;;;;;;6255007;22;20024;-76
2021/08/22 08:47:29;;;;;;;6.40;3.97;;;21.10;79.20;;;;;;6281943;22;20027;-75
2021/08/22 08:50:00;;;;;;;6.50;3.60;;;21.10;78.60;;;;;;6253596;22;20023;-75
2021/08/22 08:52:35;;;;;;;7.75;3.63;;;21.00;79.30;;;;;;6280663;22;20054;-75
2021/08/22 08:55:04;;;;;;;6.00;3.80;;;20.80;80.00;;;;;;6281550;22;20314;-76
2021/08/22 08:57:34;;;;;;;6.20;3.67;;;21.00;79.70;;;;;;6255207;22;20020;-76
2021/08/22 09:00:02;;;;;;;6.68;3.40;;;21.10;79.10;;;;;;6283788;22;20016;-75
2021/08/22 09:02:29;;;;;;;7.15;4.18;;;21.20;78.90;;;;;;6249040;22;20023;-75
2021/08/22 09:05:11;;;;;;;6.50;3.47;;;21.10;78.80;;;;;;6281946;22;20042;-75
2021/08/22 09:08:05;;;;;;;10.45;3.45;;;21.20;78.80;;;;;;6252587;22;20019;-75
2021/08/22 09:11:06;;;;;;;7.25;3.70;;;21.10;79.00;;;;;;6238350;22;20027;-74
2021/08/22 09:14:10;;;;;;;8.88;3.70;;;20.90;79.30;;;;;;6253804;22;20301;-75
2021/08/22 09:17:34;;;;;;;8.10;3.40;;;20.80;78.90;;;;;;6279956;22;20035;-75
2021/08/22 09:20:43;;;;;;;6.78;3.72;;;20.90;79.20;;;;;;6152050;23;20035;-76
2021/08/22 09:23:59;;;;;;;7.00;3.65;;;20.80;79.80;;;;;;6106717;22;20032;-74
2021/08/22 09:27:03;;;;;;;7.32;4.15;;;20.90;78.90;;;;;;6282041;22;20023;-77
2021/08/22 09:30:18;;;;;;;9.30;3.65;;;20.90;79.80;;;;;;6254632;22;20409;-74
2021/08/22 09:33:35;;;;;;;7.00;3.58;;;21.10;79.20;;;;;;6253079;22;20050;-76
2021/08/22 09:36:50;;;;;;;5.10;3.50;;;21.30;78.30;;;;;;6256160;22;20341;-76
2021/08/22 09:40:09;;;;;;;8.00;3.83;;;21.50;77.40;;;;;;6255288;22;20358;-76
2021/08/22 09:43:30;;;;;;;7.55;3.30;;;21.80;75.90;;;;;;6187845;23;20036;-77
2021/08/22 09:46:30;;;;;;;6.05;3.60;;;22.10;75.00;;;;;;6189208;23;20028;-77
2021/08/22 09:49:54;;;;;;;6.28;3.20;;;22.30;74.80;;;;;;6282692;22;20027;-74
2021/08/22 09:52:58;;;;;;;6.47;4.05;;;22.20;74.20;;;;;;6187207;23;20324;-75
2021/08/22 09:56:25;;;;;;;8.77;3.65;;;21.90;75.60;;;;;;6161530;23;20072;-77
2021/08/22 09:59:40;;;;;;;5.68;3.00;;;21.80;76.00;;;;;;6025782;23;20050;-76
2021/08/22 10:02:31;;;;;;;6.53;2.97;;;21.70;76.00;;;;;;5980964;23;20040;-76
2021/08/22 10:05:17;;;;;;;6.43;3.55;;;21.30;76.20;;;;;;6236924;22;20019;-75
2021/08/22 10:08:11;;;;;;;6.07;3.42;;;21.30;75.70;;;;;;6279046;22;20020;-76
2021/08/22 10:10:40;;;;;;;6.57;3.20;;;21.30;75.40;;;;;;6281005;22;20019;-77
2021/08/22 10:13:07;;;;;;;6.50;3.28;;;21.30;76.10;;;;;;6280969;22;20032;-77
2021/08/22 10:15:36;;;;;;;9.27;3.75;;;21.40;75.80;;;;;;6253352;22;20032;-75
2021/08/22 10:18:03;;;;;;;7.13;3.33;;;21.40;75.90;;;;;;6253230;22;20039;-74
2021/08/22 10:20:48;;;;;;;5.75;3.17;;;21.50;75.30;;;;;;6252550;22;20035;-75
2021/08/22 10:23:47;;;;;;;5.15;2.72;;;21.50;75.00;;;;;;6281424;22;20034;-75
2021/08/22 10:26:51;;;;;;;7.93;3.00;;;21.70;74.80;;;;;;6278560;22;20039;-76
2021/08/22 10:29:23;;;;;;;7.15;2.80;;;22.00;74.60;;;;;;6278632;22;20028;-77
2021/08/22 10:32:09;;;;;;;5.32;3.00;;;22.10;74.20;;;;;;6252800;22;20339;-75
2021/08/22 10:34:40;;;;;;;5.97;2.97;;;22.30;72.80;;;;;;6277355;22;20019;-75
2021/08/22 10:37:27;;;;;;;5.88;3.10;;;22.50;72.40;;;;;;6254232;22;20218;-75
2021/08/22 10:39:56;;;;;;;6.25;2.92;;;22.60;71.80;;;;;;6281560;22;20026;-76
2021/08/22 10:42:26;;;;;;;7.32;3.50;;;22.40;72.40;;;;;;6280420;22;20038;-76
2021/08/22 10:44:53;;;;;;;4.95;2.70;;;22.70;70.90;;;;;;6309451;22;20029;-74
2021/08/22 10:47:43;;;;;;;9.73;4.28;;;22.30;71.50;;;;;;6310193;22;20047;-75
2021/08/22 10:50:13;;;;;;;7.88;3.60;;;22.20;72.70;;;;;;6310164;22;20023;-76
2021/08/22 10:52:43;;;;;;;5.70;3.00;;;22.40;71.20;;;;;;6309521;22;20293;-77
2021/08/22 10:55:30;;;;;;;5.97;2.60;;;23.20;69.60;;;;;;6284596;22;20031;-76
2021/08/22 10:57:58;;;;;;;7.35;2.67;;;23.80;67.00;;;;;;6310032;22;20026;-76
2021/08/22 11:00:26;;;;;;;8.32;2.97;;;24.00;65.60;;;;;;6304946;22;20042;-76
2021/08/22 11:02:56;;;;;;;7.18;2.78;;;23.40;67.20;;;;;;6310722;22;20034;-75
2021/08/22 11:05:24;;;;;;;6.90;2.15;;;23.50;67.30;;;;;;6307327;22;20023;-75
2021/08/22 11:07:52;;;;;;;8.93;2.80;;;23.10;66.80;;;;;;6311968;22;20099;-74
2021/08/22 11:10:21;;;;;;;5.27;2.50;;;23.40;66.50;;;;;;6284006;22;20026;-76
2021/08/22 11:12:52;;;;;;;6.17;2.43;;;23.60;66.50;;;;;;6311482;22;20027;-75
2021/08/22 11:15:24;;;;;;;4.57;2.15;;;23.60;66.20;;;;;;6311307;22;20306;-75
2021/08/22 11:17:52;;;;;;;8.88;2.80;;;24.30;65.00;;;;;;6310847;22;20023;-74
2021/08/22 11:20:23;;;;;;;4.78;2.50;;;24.70;63.90;;;;;;6311716;22;20026;-77
2021/08/22 11:23:01;;;;;;;4.55;2.33;;;25.50;62.30;;;;;;6284855;22;20381;-76
2021/08/22 11:25:29;;;;;;;6.32;2.42;;;26.80;56.80;;;;;;6312245;22;20389;-74
2021/08/22 11:28:07;;;;;;;7.32;2.65;;;26.30;58.90;;;;;;6311803;22;20318;-74
2021/08/22 11:30:35;;;;;;;4.53;2.20;;;26.00;59.50;;;;;;6313029;22;20019;-77
2021/08/22 11:33:03;;;;;;;4.75;2.42;;;26.00;60.40;;;;;;6314939;22;20023;-76
2021/08/22 11:35:32;;;;;;;4.50;2.35;;;26.80;57.10;;;;;;6311321;22;20023;-76
2021/08/22 11:38:00;;;;;;;5.45;2.60;;;26.80;56.40;;;;;;6312171;22;20310;-76
2021/08/22 11:40:32;;;;;;;6.07;2.38;;;26.00;58.00;;;;;;6311818;22;20050;-76
2021/08/22 11:43:01;;;;;;;4.03;1.97;;;25.80;57.90;;;;;;6285680;22;20043;-76
2021/08/22 11:45:33;;;;;;;4.80;2.42;;;25.60;59.50;;;;;;6310837;22;20023;-76
2021/08/22 11:48:02;;;;;;;;;;;25.20;59.80;;;;;;6285570;22;20065;-76
2021/08/22 11:50:32;;;;;;;4.60;2.25;;;25.10;60.40;;;;;;6285036;22;19976;-76
2021/08/22 11:53:02;;;;;;;5.35;2.50;;;25.40;60.00;;;;;;6311824;22;20318;-78
2021/08/22 11:55:32;;;;;;;5.28;2.33;;;25.50;60.60;;;;;;6312281;22;20023;-77
2021/08/22 11:58:19;;;;;;;8.63;2.33;;;26.60;57.20;;;;;;6311354;22;20027;-76
2021/08/22 12:00:48;;;;;;;6.13;2.20;;;27.60;53.50;;;;;;6306446;22;20023;-75
2021/08/22 12:03:16;;;;;;;3.42;1.88;;;29.20;49.90;;;;;;6284600;22;20027;-75
2021/08/22 12:05:55;;;;;;;5.43;2.33;;;31.20;43.00;;;;;;6309034;22;20057;-76
2021/08/22 12:08:23;;;;;;;3.78;1.88;;;30.10;45.80;;;;;;6284120;22;20034;-75
2021/08/22 12:10:51;;;;;;;3.88;2.00;;;31.30;44.40;;;;;;6283398;22;20030;-76
2021/08/22 12:13:19;;;;;;;4.43;1.75;;;31.80;42.40;;;;;;6311842;22;20027;-75
2021/08/22 12:15:48;;;;;;;4.25;1.95;;;31.30;41.90;;;;;;6285919;22;20019;-75
2021/08/22 12:18:24;;;;;;;4.18;1.90;;;29.10;46.80;;;;;;6287536;22;20034;-74
2021/08/22 12:20:54;;;;;;;5.30;1.85;;;26.90;52.10;;;;;;6310086;22;20214;-74
2021/08/22 12:23:32;;;;;;;4.50;2.17;;;26.50;54.70;;;;;;6283809;22;20027;-75
2021/08/22 12:26:18;;;;;;;5.00;1.85;;;25.80;54.90;;;;;;6311639;22;20062;-74
2021/08/22 12:28:45;;;;;;;3.78;1.98;;;25.60;56.30;;;;;;6312237;22;20034;-74
2021/08/22 12:31:15;;;;;;;1.90;0.70;;;25.30;58.00;;;;;;6312275;22;20030;-74
2021/08/22 12:33:44;;;;;;;2.05;0.70;;;24.60;51.80;;;;;;6312591;22;20364;-75
2021/08/22 12:36:14;;;;;;;1.50;0.67;;;23.60;52.50;;;;;;6284987;22;20016;-74
2021/08/22 12:38:47;;;;;;;1.40;0.45;;;23.10;53.80;;;;;;6308991;22;20195;-75
2021/08/22 12:41:29;;;;;;;1.17;0.40;;;22.10;56.50;;;;;;6311372;22;20023;-75
2021/08/22 12:43:58;;;;;;;3.60;0.85;;;21.40;60.40;;;;;;6312751;22;20536;-76
2021/08/22 12:46:26;;;;;;;1.57;0.67;;;21.30;63.00;;;;;;6312674;22;20065;-76
2021/08/22 12:48:54;;;;;;;2.33;0.70;;;21.20;65.70;;;;;;6285078;22;20043;-75
2021/08/22 12:51:24;;;;;;;4.75;0.50;;;21.10;67.40;;;;;;6285432;22;20019;-76
2021/08/22 12:53:52;;;;;;;3.97;0.75;;;20.80;67.20;;;;;;6313823;22;20314;-75
2021/08/22 12:56:20;;;;;;;4.75;0.80;;;20.60;68.80;;;;;;6311578;22;20383;-75
2021/08/22 12:58:48;;;;;;;4.40;0.73;;;19.90;71.00;;;;;;6315144;22;20023;-75
2021/08/22 13:01:15;;;;;;;2.78;0.50;;;18.80;82.10;;;;;;6308685;22;20082;-74
2021/08/22 13:03:43;;;;;;;3.60;0.60;;;18.10;82.80;;;;;;6286179;22;20024;-75
2021/08/22 13:06:10;;;;;;;3.13;0.57;;;17.70;82.40;;;;;;6313405;22;20023;-75
2021/08/22 13:08:39;;;;;;;3.85;0.68;;;17.60;85.10;;;;;;6287958;22;20027;-75
2021/08/22 13:11:07;;;;;;;5.03;0.90;;;17.50;83.90;;;;;;6313954;22;20042;-75